sensor_id;sensor_type;location;lat;lon;timestamp;pressure;altitude;pressure_sealevel;temperature;humidity
5138;BME280;53959;53.626;11.410;2023-06-22T00:01:46;101390.84;;;19.52;70.29
5138;BME280;53959;53.626;11.410;2023-06-22T00:04:12;101391.66;;;19.54;70.46
5138;BME280;53959;53.626;11.410;2023-06-22T00:06:37;101388.81;;;19.57;70.32
5138;BME280;53959;53.626;11.410;2023-06-22T00:09:02;101395.22;;;19.54;70.95
5138;BME280;53959;53.626;11.410;2023-06-22T00:11:28;101399.16;;;19.30;71.63
5138;BME280;53959;53.626;11.410;2023-06-22T00:13:54;101398.28;;;19.29;71.92
5138;BME280;53959;53.626;11.410;2023-06-22T00:16:19;101402.00;;;19.27;72.84
5138;BME280;53959;53.626;11.410;2023-06-22T00:18:44;101401.69;;;19.33;72.80
5138;BME280;53959;53.626;11.410;2023-06-22T00:21:13;101399.22;;;19.11;74.15
5138;BME280;53959;53.626;11.410;2023-06-22T00:23:38;101401.81;;;19.12;74.28
5138;BME280;53959;53.626;11.410;2023-06-22T00:26:03;101419.94;;;19.09;74.53
5138;BME280;53959;53.626;11.410;2023-06-22T00:28:29;101421.28;;;19.00;75.12
5138;BME280;53959;53.626;11.410;2023-06-22T00:30:54;101414.72;;;19.06;75.08
5138;BME280;53959;53.626;11.410;2023-06-22T00:33:19;101413.22;;;19.00;75.29
5138;BME280;53959;53.626;11.410;2023-06-22T00:35:45;101407.44;;;19.08;75.40
5138;BME280;53959;53.626;11.410;2023-06-22T00:38:10;101411.75;;;18.93;76.19
5138;BME280;53959;53.626;11.410;2023-06-22T00:40:36;101411.44;;;18.99;76.29
5138;BME280;53959;53.626;11.410;2023-06-22T00:43:02;101413.13;;;19.02;76.34
5138;BME280;53959;53.626;11.410;2023-06-22T00:45:28;101415.47;;;18.90;76.80
5138;BME280;53959;53.626;11.410;2023-06-22T00:47:56;101406.59;;;18.88;77.23
5138;BME280;53959;53.626;11.410;2023-06-22T00:50:25;101408.56;;;19.04;77.00
5138;BME280;53959;53.626;11.410;2023-06-22T00:52:55;101404.56;;;18.75;77.88
5138;BME280;53959;53.626;11.410;2023-06-22T00:55:22;101407.50;;;18.68;78.48
5138;BME280;53959;53.626;11.410;2023-06-22T00:57:48;101417.34;;;18.69;78.65
5138;BME280;53959;53.626;11.410;2023-06-22T01:00:15;101403.91;;;18.69;78.61
5138;BME280;53959;53.626;11.410;2023-06-22T01:02:43;101403.91;;;18.69;78.38
5138;BME280;53959;53.626;11.410;2023-06-22T01:05:14;101409.22;;;18.71;78.38
5138;BME280;53959;53.626;11.410;2023-06-22T01:07:49;101407.97;;;18.59;78.62
5138;BME280;53959;53.626;11.410;2023-06-22T01:10:27;101418.00;;;18.56;78.99
5138;BME280;53959;53.626;11.410;2023-06-22T01:13:01;101415.44;;;18.53;78.88
5138;BME280;53959;53.626;11.410;2023-06-22T01:15:41;101410.28;;;18.48;78.90
5138;BME280;53959;53.626;11.410;2023-06-22T01:18:11;101418.84;;;18.37;79.04
5138;BME280;53959;53.626;11.410;2023-06-22T01:20:38;101420.41;;;18.43;78.85
5138;BME280;53959;53.626;11.410;2023-06-22T01:26:20;101422.94;;;18.46;77.90
5138;BME280;53959;53.626;11.410;2023-06-22T01:28:49;101423.63;;;18.31;78.27
5138;BME280;53959;53.626;11.410;2023-06-22T01:31:34;101425.31;;;18.33;78.20
5138;BME280;53959;53.626;11.410;2023-06-22T01:34:03;101419.59;;;18.41;77.96
5138;BME280;53959;53.626;11.410;2023-06-22T01:36:30;101419.59;;;18.41;77.97
5138;BME280;53959;53.626;11.410;2023-06-22T01:38:57;101417.13;;;18.36;77.72
5138;BME280;53959;53.626;11.410;2023-06-22T01:41:25;101409.84;;;18.38;77.36
5138;BME280;53959;53.626;11.410;2023-06-22T01:43:52;101416.75;;;18.25;77.16
5138;BME280;53959;53.626;11.410;2023-06-22T01:46:19;101407.50;;;18.31;76.98
5138;BME280;53959;53.626;11.410;2023-06-22T01:48:45;101408.97;;;18.38;76.34
5138;BME280;53959;53.626;11.410;2023-06-22T01:51:11;101403.06;;;18.30;76.60
5138;BME280;53959;53.626;11.410;2023-06-22T01:53:38;101407.16;;;18.38;76.49
5138;BME280;53959;53.626;11.410;2023-06-22T01:56:04;101406.34;;;18.17;77.28
5138;BME280;53959;53.626;11.410;2023-06-22T01:58:30;101412.16;;;18.27;77.11
5138;BME280;53959;53.626;11.410;2023-06-22T02:01:01;101409.66;;;18.43;76.22
5138;BME280;53959;53.626;11.410;2023-06-22T02:03:35;101418.09;;;18.54;75.37
5138;BME280;53959;53.626;11.410;2023-06-22T02:06:14;101409.13;;;18.54;75.55
5138;BME280;53959;53.626;11.410;2023-06-22T02:08:48;101407.38;;;18.53;75.44
5138;BME280;53959;53.626;11.410;2023-06-22T02:11:17;101409.44;;;18.48;75.27
5138;BME280;53959;53.626;11.410;2023-06-22T02:13:44;101411.31;;;18.64;75.11
5138;BME280;53959;53.626;11.410;2023-06-22T02:16:11;101409.28;;;18.51;75.48
5138;BME280;53959;53.626;11.410;2023-06-22T02:18:45;101412.66;;;18.35;75.85
5138;BME280;53959;53.626;11.410;2023-06-22T02:21:11;101418.28;;;18.68;74.91
5138;BME280;53959;53.626;11.410;2023-06-22T02:23:36;101413.59;;;18.74;74.48
5138;BME280;53959;53.626;11.410;2023-06-22T02:26:03;101407.97;;;18.59;74.62
5138;BME280;53959;53.626;11.410;2023-06-22T02:28:28;101409.34;;;18.49;75.30
5138;BME280;53959;53.626;11.410;2023-06-22T02:30:54;101408.38;;;18.50;75.82
5138;BME280;53959;53.626;11.410;2023-06-22T02:33:19;101413.84;;;18.49;75.59
5138;BME280;53959;53.626;11.410;2023-06-22T02:35:45;101403.31;;;18.44;75.93
5138;BME280;53959;53.626;11.410;2023-06-22T02:38:14;101404.44;;;18.78;74.91
5138;BME280;53959;53.626;11.410;2023-06-22T02:40:39;101399.78;;;18.81;74.53
5138;BME280;53959;53.626;11.410;2023-06-22T02:43:05;101394.22;;;18.65;74.90
5138;BME280;53959;53.626;11.410;2023-06-22T02:45:30;101407.13;;;18.78;74.81
5138;BME280;53959;53.626;11.410;2023-06-22T02:47:56;101404.06;;;18.85;74.55
5138;BME280;53959;53.626;11.410;2023-06-22T02:50:22;101410.41;;;18.84;74.65
5138;BME280;53959;53.626;11.410;2023-06-22T02:52:48;101412.38;;;18.81;74.70
5138;BME280;53959;53.626;11.410;2023-06-22T02:55:14;101405.22;;;18.80;74.42
5138;BME280;53959;53.626;11.410;2023-06-22T02:57:40;101405.34;;;18.77;74.97
5138;BME280;53959;53.626;11.410;2023-06-22T03:00:10;101405.88;;;18.66;75.48
5138;BME280;53959;53.626;11.410;2023-06-22T03:02:47;101410.28;;;18.48;76.24
5138;BME280;53959;53.626;11.410;2023-06-22T03:05:14;101411.75;;;18.55;76.19
5138;BME280;53959;53.626;11.410;2023-06-22T03:07:41;101406.97;;;18.62;75.72
5138;BME280;53959;53.626;11.410;2023-06-22T03:10:08;101411.97;;;18.69;75.45
5138;BME280;53959;53.626;11.410;2023-06-22T03:12:34;101419.38;;;18.64;75.48
5138;BME280;53959;53.626;11.410;2023-06-22T03:15:00;101419.44;;;18.44;76.32
5138;BME280;53959;53.626;11.410;2023-06-22T03:17:25;101421.69;;;18.53;76.28
5138;BME280;53959;53.626;11.410;2023-06-22T03:19:50;101424.03;;;18.61;76.05
5138;BME280;53959;53.626;11.410;2023-06-22T03:22:15;101422.06;;;18.64;76.02
5138;BME280;53959;53.626;11.410;2023-06-22T03:24:41;101432.59;;;18.71;75.75
5138;BME280;53959;53.626;11.410;2023-06-22T03:27:06;101438.38;;;18.80;75.43
5138;BME280;53959;53.626;11.410;2023-06-22T03:29:33;101445.13;;;18.70;75.85
5138;BME280;53959;53.626;11.410;2023-06-22T03:31:59;101443.53;;;18.47;76.70
5138;BME280;53959;53.626;11.410;2023-06-22T03:34:25;101433.53;;;18.30;77.18
5138;BME280;53959;53.626;11.410;2023-06-22T03:36:52;101443.06;;;18.56;76.94
5138;BME280;53959;53.626;11.410;2023-06-22T03:39:17;101445.19;;;18.68;75.63
5138;BME280;53959;53.626;11.410;2023-06-22T03:41:42;101446.69;;;18.76;75.13
5138;BME280;53959;53.626;11.410;2023-06-22T03:44:08;101438.94;;;18.68;74.50
5138;BME280;53959;53.626;11.410;2023-06-22T03:46:37;101441.16;;;18.79;74.26
5138;BME280;53959;53.626;11.410;2023-06-22T03:49:03;101444.66;;;18.81;74.24
5138;BME280;53959;53.626;11.410;2023-06-22T03:51:28;101450.81;;;18.83;74.01
5138;BME280;53959;53.626;11.410;2023-06-22T03:53:54;101447.75;;;18.90;73.91
5138;BME280;53959;53.626;11.410;2023-06-22T03:56:19;101457.56;;;18.91;73.84
5138;BME280;53959;53.626;11.410;2023-06-22T03:58:46;101451.91;;;18.98;73.69
5138;BME280;53959;53.626;11.410;2023-06-22T04:01:11;101446.41;;;18.82;74.11
5138;BME280;53959;53.626;11.410;2023-06-22T04:03:37;101456.78;;;18.89;73.78
5138;BME280;53959;53.626;11.410;2023-06-22T04:06:03;101459.19;;;19.14;73.72
5138;BME280;53959;53.626;11.410;2023-06-22T04:08:29;101455.47;;;18.98;73.49
5138;BME280;53959;53.626;11.410;2023-06-22T04:10:54;101459.31;;;19.11;74.26
5138;BME280;53959;53.626;11.410;2023-06-22T04:13:20;101465.47;;;19.32;73.07
5138;BME280;53959;53.626;11.410;2023-06-22T04:15:45;101464.44;;;19.35;73.56
5138;BME280;53959;53.626;11.410;2023-06-22T04:18:10;101473.28;;;19.56;73.11
5138;BME280;53959;53.626;11.410;2023-06-22T04:20:36;101465.97;;;19.22;73.39
5138;BME280;53959;53.626;11.410;2023-06-22T04:23:01;101467.50;;;19.27;73.26
5138;BME280;53959;53.626;11.410;2023-06-22T04:25:27;101471.88;;;19.30;73.29
5138;BME280;53959;53.626;11.410;2023-06-22T04:27:52;101473.78;;;19.28;73.82
5138;BME280;53959;53.626;11.410;2023-06-22T04:30:17;101471.09;;;19.28;73.26
5138;BME280;53959;53.626;11.410;2023-06-22T04:32:43;101470.78;;;19.34;72.55
5138;BME280;53959;53.626;11.410;2023-06-22T04:35:09;101478.59;;;19.57;73.10
5138;BME280;53959;53.626;11.410;2023-06-22T04:37:35;101482.38;;;19.53;73.71
5138;BME280;53959;53.626;11.410;2023-06-22T04:40:00;101485.13;;;19.52;73.17
5138;BME280;53959;53.626;11.410;2023-06-22T04:42:26;101482.88;;;19.61;73.58
5138;BME280;53959;53.626;11.410;2023-06-22T04:44:52;101482.50;;;19.69;73.91
5138;BME280;53959;53.626;11.410;2023-06-22T04:47:17;101489.63;;;19.70;73.98
5138;BME280;53959;53.626;11.410;2023-06-22T04:49:42;101481.50;;;19.72;74.48
5138;BME280;53959;53.626;11.410;2023-06-22T04:52:10;101482.22;;;19.75;75.00
5138;BME280;53959;53.626;11.410;2023-06-22T04:54:38;101487.44;;;19.78;75.57
5138;BME280;53959;53.626;11.410;2023-06-22T04:57:05;101480.38;;;19.76;75.92
5138;BME280;53959;53.626;11.410;2023-06-22T04:59:36;101483.47;;;19.68;76.94
5138;BME280;53959;53.626;11.410;2023-06-22T05:02:04;101481.50;;;19.72;77.39
5138;BME280;53959;53.626;11.410;2023-06-22T05:04:31;101481.94;;;19.62;77.63
5138;BME280;53959;53.626;11.410;2023-06-22T05:06:57;101478.22;;;19.65;77.64
5138;BME280;53959;53.626;11.410;2023-06-22T05:09:23;101479.56;;;19.74;77.61
5138;BME280;53959;53.626;11.410;2023-06-22T05:11:50;101487.91;;;19.86;76.98
5138;BME280;53959;53.626;11.410;2023-06-22T05:14:16;101482.44;;;19.88;76.64
5138;BME280;53959;53.626;11.410;2023-06-22T05:16:42;101478.13;;;19.67;75.76
5138;BME280;53959;53.626;11.410;2023-06-22T05:19:07;101478.84;;;19.70;75.23
5138;BME280;53959;53.626;11.410;2023-06-22T05:21:33;101477.75;;;20.09;75.01
5138;BME280;53959;53.626;11.410;2023-06-22T05:23:58;101482.44;;;20.05;74.46
5138;BME280;53959;53.626;11.410;2023-06-22T05:26:29;101481.06;;;20.14;74.14
5138;BME280;53959;53.626;11.410;2023-06-22T05:28:55;101480.91;;;20.17;73.82
5138;BME280;53959;53.626;11.410;2023-06-22T05:31:21;101491.31;;;20.25;73.88
5138;BME280;53959;53.626;11.410;2023-06-22T05:33:47;101492.47;;;20.36;72.06
5138;BME280;53959;53.626;11.410;2023-06-22T05:36:13;101487.69;;;20.42;71.31
5138;BME280;53959;53.626;11.410;2023-06-22T05:38:39;101491.56;;;20.53;70.93
5138;BME280;53959;53.626;11.410;2023-06-22T05:41:05;101494.75;;;20.61;69.56
5138;BME280;53959;53.626;11.410;2023-06-22T05:43:31;101491.78;;;20.50;68.93
5138;BME280;53959;53.626;11.410;2023-06-22T05:45:57;101484.13;;;20.58;66.44
5138;BME280;53959;53.626;11.410;2023-06-22T05:48:23;101493.75;;;20.80;64.46
5138;BME280;53959;53.626;11.410;2023-06-22T05:50:49;101482.78;;;20.99;64.80
5138;BME280;53959;53.626;11.410;2023-06-22T05:53:15;101475.63;;;20.82;63.94
5138;BME280;53959;53.626;11.410;2023-06-22T05:55:40;101477.72;;;21.08;64.14
5138;BME280;53959;53.626;11.410;2023-06-22T05:58:06;101481.28;;;21.09;61.28
5138;BME280;53959;53.626;11.410;2023-06-22T06:00:31;101485.06;;;21.06;61.31
5138;BME280;53959;53.626;11.410;2023-06-22T06:02:57;101486.97;;;21.04;60.07
5138;BME280;53959;53.626;11.410;2023-06-22T06:05:28;101480.53;;;20.91;59.96
5138;BME280;53959;53.626;11.410;2023-06-22T06:07:53;101493.75;;;21.27;60.62
5138;BME280;53959;53.626;11.410;2023-06-22T06:10:19;101490.78;;;21.16;60.66
5138;BME280;53959;53.626;11.410;2023-06-22T06:12:44;101499.31;;;21.24;60.81
5138;BME280;53959;53.626;11.410;2023-06-22T06:15:09;101492.53;;;21.49;61.06
5138;BME280;53959;53.626;11.410;2023-06-22T06:17:35;101486.22;;;21.64;60.35
5138;BME280;53959;53.626;11.410;2023-06-22T06:20:00;101490.16;;;21.58;60.91
5138;BME280;53959;53.626;11.410;2023-06-22T06:22:26;101493.53;;;21.78;60.48
5138;BME280;53959;53.626;11.410;2023-06-22T06:24:51;101486.75;;;21.85;59.45
5138;BME280;53959;53.626;11.410;2023-06-22T06:27:17;101488.88;;;22.10;57.84
5138;BME280;53959;53.626;11.410;2023-06-22T06:29:43;101496.53;;;22.18;56.35
5138;BME280;53959;53.626;11.410;2023-06-22T06:32:11;101487.03;;;22.11;54.90
5138;BME280;53959;53.626;11.410;2023-06-22T06:34:36;101485.38;;;22.38;56.12
5138;BME280;53959;53.626;11.410;2023-06-22T06:37:01;101485.56;;;22.35;56.46
5138;BME280;53959;53.626;11.410;2023-06-22T06:39:27;101488.47;;;22.61;56.37
5138;BME280;53959;53.626;11.410;2023-06-22T06:41:52;101485.06;;;22.71;55.20
5138;BME280;53959;53.626;11.410;2023-06-22T06:44:18;101482.47;;;22.27;55.57
5138;BME280;53959;53.626;11.410;2023-06-22T06:46:44;101483.25;;;22.58;54.89
5138;BME280;53959;53.626;11.410;2023-06-22T06:49:09;101485.84;;;22.59;54.70
5138;BME280;53959;53.626;11.410;2023-06-22T06:51:34;101485.06;;;22.86;54.98
5138;BME280;53959;53.626;11.410;2023-06-22T06:54:00;101479.72;;;23.13;54.87
5138;BME280;53959;53.626;11.410;2023-06-22T06:56:25;101482.34;;;22.86;54.57
5138;BME280;53959;53.626;11.410;2023-06-22T06:58:51;101485.06;;;23.41;52.87
5138;BME280;53959;53.626;11.410;2023-06-22T07:01:16;101486.06;;;22.99;52.06
5138;BME280;53959;53.626;11.410;2023-06-22T07:03:42;101484.00;;;23.02;52.49
5138;BME280;53959;53.626;11.410;2023-06-22T07:06:08;101489.00;;;23.09;52.96
5138;BME280;53959;53.626;11.410;2023-06-22T07:08:33;101491.53;;;23.39;51.40
5138;BME280;53959;53.626;11.410;2023-06-22T07:11:00;101492.03;;;23.58;50.97
5138;BME280;53959;53.626;11.410;2023-06-22T07:13:26;101491.34;;;23.42;52.33
5138;BME280;53959;53.626;11.410;2023-06-22T07:15:51;101487.44;;;23.46;52.79
5138;BME280;53959;53.626;11.410;2023-06-22T07:18:16;101484.97;;;23.70;52.98
5138;BME280;53959;53.626;11.410;2023-06-22T07:20:42;101479.72;;;24.07;52.50
5138;BME280;53959;53.626;11.410;2023-06-22T07:23:07;101476.22;;;23.92;53.43
5138;BME280;53959;53.626;11.410;2023-06-22T07:25:32;101481.13;;;24.25;52.19
5138;BME280;53959;53.626;11.410;2023-06-22T07:28:07;101478.09;;;24.04;52.30
5138;BME280;53959;53.626;11.410;2023-06-22T07:30:33;101471.03;;;24.02;52.53
5138;BME280;53959;53.626;11.410;2023-06-22T07:32:59;101482.75;;;24.02;52.52
5138;BME280;53959;53.626;11.410;2023-06-22T07:35:29;101468.97;;;24.18;52.76
5138;BME280;53959;53.626;11.410;2023-06-22T07:37:54;101470.50;;;24.35;52.51
5138;BME280;53959;53.626;11.410;2023-06-22T07:40:19;101477.53;;;24.88;51.64
5138;BME280;53959;53.626;11.410;2023-06-22T07:42:45;101461.16;;;24.77;51.58
5138;BME280;53959;53.626;11.410;2023-06-22T07:45:13;101470.38;;;24.87;51.47
5138;BME280;53959;53.626;11.410;2023-06-22T07:47:39;101468.72;;;24.98;51.24
5138;BME280;53959;53.626;11.410;2023-06-22T07:50:05;101466.44;;;24.91;51.71
5138;BME280;53959;53.626;11.410;2023-06-22T07:52:30;101471.19;;;25.37;50.62
5138;BME280;53959;53.626;11.410;2023-06-22T07:54:56;101472.13;;;25.25;51.17
5138;BME280;53959;53.626;11.410;2023-06-22T07:57:21;101476.25;;;25.55;50.35
5138;BME280;53959;53.626;11.410;2023-06-22T07:59:47;101461.41;;;25.59;49.39
5138;BME280;53959;53.626;11.410;2023-06-22T08:02:12;101462.69;;;25.66;49.42
5138;BME280;53959;53.626;11.410;2023-06-22T08:04:38;101454.66;;;25.76;49.33
5138;BME280;53959;53.626;11.410;2023-06-22T08:07:04;101468.94;;;25.79;49.04
5138;BME280;53959;53.626;11.410;2023-06-22T08:09:31;101474.00;;;25.84;48.96
5138;BME280;53959;53.626;11.410;2023-06-22T08:11:57;101467.22;;;25.78;48.99
5138;BME280;53959;53.626;11.410;2023-06-22T08:14:25;101471.91;;;26.23;48.55
5138;BME280;53959;53.626;11.410;2023-06-22T08:16:50;101474.75;;;26.32;47.92
5138;BME280;53959;53.626;11.410;2023-06-22T08:19:16;101474.16;;;26.51;47.56
5138;BME280;53959;53.626;11.410;2023-06-22T08:21:41;101471.31;;;26.42;47.85
5138;BME280;53959;53.626;11.410;2023-06-22T08:24:06;101469.09;;;26.47;48.21
5138;BME280;53959;53.626;11.410;2023-06-22T08:26:33;101464.84;;;26.43;47.95
5138;BME280;53959;53.626;11.410;2023-06-22T08:29:01;101474.44;;;26.82;46.91
5138;BME280;53959;53.626;11.410;2023-06-22T08:31:27;101478.00;;;27.05;46.29
5138;BME280;53959;53.626;11.410;2023-06-22T08:33:52;101479.50;;;28.05;43.86
5138;BME280;53959;53.626;11.410;2023-06-22T08:36:18;101485.38;;;28.43;43.20
5138;BME280;53959;53.626;11.410;2023-06-22T08:38:43;101487.59;;;28.07;42.91
5138;BME280;53959;53.626;11.410;2023-06-22T08:41:09;101480.81;;;27.26;44.45
5138;BME280;53959;53.626;11.410;2023-06-22T08:43:35;101487.69;;;26.98;44.60
5138;BME280;53959;53.626;11.410;2023-06-22T08:46:00;101489.19;;;26.57;45.05
5138;BME280;53959;53.626;11.410;2023-06-22T08:48:27;101482.56;;;25.90;45.74
5138;BME280;53959;53.626;11.410;2023-06-22T08:50:53;101486.69;;;25.72;46.65
5138;BME280;53959;53.626;11.410;2023-06-22T08:53:18;101490.25;;;25.85;46.38
5138;BME280;53959;53.626;11.410;2023-06-22T08:55:44;101483.34;;;25.92;46.27
5138;BME280;53959;53.626;11.410;2023-06-22T08:58:10;101483.88;;;27.44;43.72
5138;BME280;53959;53.626;11.410;2023-06-22T09:00:35;101485.66;;;29.01;41.09
5138;BME280;53959;53.626;11.410;2023-06-22T09:03:01;101474.97;;;29.67;39.27
5138;BME280;53959;53.626;11.410;2023-06-22T09:05:28;101477.25;;;30.01;38.64
5138;BME280;53959;53.626;11.410;2023-06-22T09:07:56;101478.09;;;31.05;37.61
5138;BME280;53959;53.626;11.410;2023-06-22T09:10:21;101477.53;;;30.64;37.87
5138;BME280;53959;53.626;11.410;2023-06-22T09:12:47;101478.69;;;31.27;36.38
5138;BME280;53959;53.626;11.410;2023-06-22T09:15:12;101472.91;;;31.48;36.16
5138;BME280;53959;53.626;11.410;2023-06-22T09:17:38;101475.66;;;31.65;33.41
5138;BME280;53959;53.626;11.410;2023-06-22T09:20:03;101473.56;;;31.95;32.64
5138;BME280;53959;53.626;11.410;2023-06-22T09:22:31;101463.94;;;31.28;32.44
5138;BME280;53959;53.626;11.410;2023-06-22T09:24:57;101475.75;;;32.96;29.72
5138;BME280;53959;53.626;11.410;2023-06-22T09:27:22;101462.53;;;32.39;29.76
5138;BME280;53959;53.626;11.410;2023-06-22T09:29:48;101472.69;;;31.13;30.92
5138;BME280;53959;53.626;11.410;2023-06-22T09:32:14;101474.22;;;30.04;30.91
5138;BME280;53959;53.626;11.410;2023-06-22T09:34:39;101479.25;;;29.31;32.09
5138;BME280;53959;53.626;11.410;2023-06-22T09:37:05;101464.81;;;29.00;33.21
5138;BME280;53959;53.626;11.410;2023-06-22T09:39:30;101465.28;;;29.44;33.51
5138;BME280;53959;53.626;11.410;2023-06-22T09:41:58;101462.69;;;30.10;33.70
5138;BME280;53959;53.626;11.410;2023-06-22T09:44:23;101459.31;;;30.83;33.46
5138;BME280;53959;53.626;11.410;2023-06-22T09:46:48;101448.25;;;30.08;36.28
5138;BME280;53959;53.626;11.410;2023-06-22T09:49:14;101451.81;;;30.85;35.62
5138;BME280;53959;53.626;11.410;2023-06-22T09:51:39;101444.53;;;31.57;35.20
5138;BME280;53959;53.626;11.410;2023-06-22T09:54:04;101446.63;;;30.72;37.06
5138;BME280;53959;53.626;11.410;2023-06-22T09:56:30;101441.22;;;30.90;37.07
5138;BME280;53959;53.626;11.410;2023-06-22T09:58:56;101440.22;;;31.36;36.54
5138;BME280;53959;53.626;11.410;2023-06-22T10:01:21;101440.88;;;30.38;38.05
5138;BME280;53959;53.626;11.410;2023-06-22T10:03:47;101439.53;;;31.07;37.28
5138;BME280;53959;53.626;11.410;2023-06-22T10:06:13;101435.94;;;31.78;35.67
5138;BME280;53959;53.626;11.410;2023-06-22T10:08:38;101435.91;;;32.13;34.51
5138;BME280;53959;53.626;11.410;2023-06-22T10:11:04;101432.13;;;31.88;35.40
5138;BME280;53959;53.626;11.410;2023-06-22T10:13:29;101425.91;;;30.32;35.61
5138;BME280;53959;53.626;11.410;2023-06-22T10:15:55;101422.88;;;31.36;35.84
5138;BME280;53959;53.626;11.410;2023-06-22T10:18:21;101425.03;;;32.04;33.98
5138;BME280;53959;53.626;11.410;2023-06-22T10:20:48;101421.59;;;31.84;34.76
5138;BME280;53959;53.626;11.410;2023-06-22T10:23:16;101415.38;;;31.82;34.70
5138;BME280;53959;53.626;11.410;2023-06-22T10:25:41;101413.78;;;31.71;34.77
5138;BME280;53959;53.626;11.410;2023-06-22T10:28:07;101406.09;;;31.57;33.39
5138;BME280;53959;53.626;11.410;2023-06-22T10:30:32;101412.13;;;30.79;35.14
5138;BME280;53959;53.626;11.410;2023-06-22T10:32:57;101400.00;;;31.89;33.56
5138;BME280;53959;53.626;11.410;2023-06-22T10:35:23;101405.97;;;32.02;33.56
5138;BME280;53959;53.626;11.410;2023-06-22T10:37:48;101410.53;;;31.94;33.45
5138;BME280;53959;53.626;11.410;2023-06-22T10:40:16;101413.47;;;31.56;33.69
5138;BME280;53959;53.626;11.410;2023-06-22T10:42:42;101404.91;;;32.55;32.36
5138;BME280;53959;53.626;11.410;2023-06-22T10:45:08;101403.22;;;32.62;31.96
5138;BME280;53959;53.626;11.410;2023-06-22T10:47:34;101399.69;;;30.85;34.80
5138;BME280;53959;53.626;11.410;2023-06-22T10:50:00;101400.94;;;32.24;33.08
5138;BME280;53959;53.626;11.410;2023-06-22T10:52:26;101404.00;;;32.21;32.29
5138;BME280;53959;53.626;11.410;2023-06-22T10:54:51;101412.56;;;31.74;31.55
5138;BME280;53959;53.626;11.410;2023-06-22T10:57:17;101411.72;;;31.73;31.24
5138;BME280;53959;53.626;11.410;2023-06-22T10:59:43;101400.59;;;32.27;33.12
5138;BME280;53959;53.626;11.410;2023-06-22T11:02:08;101406.78;;;31.59;33.62
5138;BME280;53959;53.626;11.410;2023-06-22T11:04:33;101399.28;;;31.43;32.94
5138;BME280;53959;53.626;11.410;2023-06-22T11:06:59;101390.78;;;30.73;33.72
5138;BME280;53959;53.626;11.410;2023-06-22T11:09:24;101395.16;;;31.29;33.59
5138;BME280;53959;53.626;11.410;2023-06-22T11:11:51;101383.84;;;30.51;35.00
5138;BME280;53959;53.626;11.410;2023-06-22T11:14:19;101386.03;;;31.38;34.26
5138;BME280;53959;53.626;11.410;2023-06-22T11:16:44;101378.16;;;32.05;33.65
5138;BME280;53959;53.626;11.410;2023-06-22T11:19:11;101375.16;;;31.73;34.16
5138;BME280;53959;53.626;11.410;2023-06-22T11:21:37;101378.47;;;32.02;34.88
5138;BME280;53959;53.626;11.410;2023-06-22T11:24:02;101378.63;;;31.75;34.48
5138;BME280;53959;53.626;11.410;2023-06-22T11:26:28;101371.69;;;31.88;34.33
5138;BME280;53959;53.626;11.410;2023-06-22T11:28:53;101365.94;;;31.82;35.64
5138;BME280;53959;53.626;11.410;2023-06-22T11:31:19;101367.78;;;32.25;34.99
5138;BME280;53959;53.626;11.410;2023-06-22T11:33:44;101362.97;;;31.49;35.64
5138;BME280;53959;53.626;11.410;2023-06-22T11:36:11;101358.13;;;31.87;35.24
5138;BME280;53959;53.626;11.410;2023-06-22T11:38:36;101373.47;;;32.24;34.63
5138;BME280;53959;53.626;11.410;2023-06-22T11:41:05;101360.53;;;31.28;36.47
5138;BME280;53959;53.626;11.410;2023-06-22T11:43:30;101365.47;;;31.60;36.24
5138;BME280;53959;53.626;11.410;2023-06-22T11:45:56;101354.63;;;32.03;35.45
5138;BME280;53959;53.626;11.410;2023-06-22T11:48:24;101355.53;;;31.85;36.13
5138;BME280;53959;53.626;11.410;2023-06-22T11:50:49;101350.66;;;31.79;36.02
5138;BME280;53959;53.626;11.410;2023-06-22T11:53:15;101352.09;;;30.76;37.54
5138;BME280;53959;53.626;11.410;2023-06-22T11:55:42;101340.06;;;31.05;37.07
5138;BME280;53959;53.626;11.410;2023-06-22T11:58:07;101347.09;;;31.25;36.66
5138;BME280;53959;53.626;11.410;2023-06-22T12:00:33;101342.72;;;30.51;37.75
5138;BME280;53959;53.626;11.410;2023-06-22T12:02:59;101336.13;;;31.61;36.55
5138;BME280;53959;53.626;11.410;2023-06-22T12:05:24;101333.72;;;31.40;37.34
5138;BME280;53959;53.626;11.410;2023-06-22T12:07:50;101336.47;;;30.59;37.87
5138;BME280;53959;53.626;11.410;2023-06-22T12:10:18;101330.78;;;30.42;38.27
5138;BME280;53959;53.626;11.410;2023-06-22T12:12:43;101323.63;;;30.59;37.95
5138;BME280;53959;53.626;11.410;2023-06-22T12:15:09;101322.69;;;31.32;36.92
5138;BME280;53959;53.626;11.410;2023-06-22T12:17:35;101331.91;;;31.13;37.29
5138;BME280;53959;53.626;11.410;2023-06-22T12:20:01;101330.09;;;31.83;36.28
5138;BME280;53959;53.626;11.410;2023-06-22T12:22:27;101321.59;;;31.68;36.42
5138;BME280;53959;53.626;11.410;2023-06-22T12:24:53;101314.88;;;30.46;38.25
5138;BME280;53959;53.626;11.410;2023-06-22T12:27:18;101320.16;;;30.57;38.04
5138;BME280;53959;53.626;11.410;2023-06-22T12:29:46;101316.63;;;31.10;37.25
5138;BME280;53959;53.626;11.410;2023-06-22T12:32:13;101316.59;;;31.64;36.57
5138;BME280;53959;53.626;11.410;2023-06-22T12:34:39;101301.81;;;31.39;36.95
5138;BME280;53959;53.626;11.410;2023-06-22T12:37:05;101305.44;;;31.04;37.65
5138;BME280;53959;53.626;11.410;2023-06-22T12:39:31;101294.66;;;31.10;37.80
5138;BME280;53959;53.626;11.410;2023-06-22T12:41:57;101296.72;;;31.08;37.86
5138;BME280;53959;53.626;11.410;2023-06-22T12:44:23;101296.91;;;32.03;35.93
5138;BME280;53959;53.626;11.410;2023-06-22T12:46:48;101291.31;;;32.12;36.11
5138;BME280;53959;53.626;11.410;2023-06-22T12:49:13;101289.41;;;30.63;38.08